Hauptseite
METAR-TAF:

METAR-TAF

Flughäfen :

Amman, Jordanien

Flughafen Marka International

Breite: 31-59N, Länge: 035-59E, Höhe: 767 m

Beobachtung

Neuester Wetterbericht von vor 46 Minuten, um 15:00 UTC
Wind 10 kt aus West/Nordwest
Temperatur 34°C
Luftfeuchtigkeit 30%
Luftdruck 1011 hPa
Sichtweite: 5000 m
trockener Dunst

METAR: OJAM 271500Z 30010KT 5000 HZ NSC 34/14 Q1011 NOSIG

Zeit: 18:46 (15:46 UTC)

Prognose

Neuester Wetterbericht von vor 4 Stunden und 46 Minuten, um 11:00 UTC
Gültige Prognose vom 27 um 12 UTC bis 28 um 18 UTC
Wind 10 kt aus West/Nordwest
Sichtweite: 5000 m
trockener Dunst
Zeitweise
vom 28 um 02 UTC bis 28 um 06 UTC
Wind 1 kt aus unterschiedlichen Richtungen
Sichtweite: 3000 m
Rauch

TAF: OJAM 271100Z 2712/2818 30010KT 5000 HZ NSC TEMPO 2802/2806 VRB01KT 3000 FU

Wetterbeobachtungen und Prognosen von mehr als 4000 Flughäfen (METAR und TAF Bericht).

Die verfügbaren Stationen werden durch gelbe und rote Markierungen auf der Karte dargestellt.

Führen Sie die Maus auf sie, um den Namen der Station zu sehen.

Darauf klicken, um die Beobachtung von Wetterbeobachtungen und Prognosen zu sehen.

Um die Karte zu ändern : klicken Sie auf den grünen Tasten mit einem schwarzen Kreuz Zum Vergrößern, auf den grünen Button mit einem Gedankenstrich zu verkleinern, oder auf die grünen Pfeile für benachbarte Karten.


METAR-TAF: